sensor_id;sensor_type;location;lat;lon;timestamp;temperature;humidity
46816;DHT22;32787;53.316;8.670;2022-12-18T00:01:34;-3270.90;89.50
46816;DHT22;32787;53.316;8.670;2022-12-18T00:04:05;-3270.90;89.40
46816;DHT22;32787;53.316;8.670;2022-12-18T00:06:31;-3271.00;89.50
46816;DHT22;32787;53.316;8.670;2022-12-18T00:08:59;-3270.90;89.40
46816;DHT22;32787;53.316;8.670;2022-12-18T00:11:28;-3270.90;89.30
46816;DHT22;32787;53.316;8.670;2022-12-18T00:13:56;-3270.90;89.20
46816;DHT22;32787;53.316;8.670;2022-12-18T00:16:23;-3270.90;89.20
46816;DHT22;32787;53.316;8.670;2022-12-18T00:18:50;-3270.90;89.00
46816;DHT22;32787;53.316;8.670;2022-12-18T00:21:17;-3270.90;88.90
46816;DHT22;32787;53.316;8.670;2022-12-18T00:23:43;-3270.80;88.90
46816;DHT22;32787;53.316;8.670;2022-12-18T00:26:31;-3270.60;88.90
46816;DHT22;32787;53.316;8.670;2022-12-18T00:29:11;-3270.60;89.50
46816;DHT22;32787;53.316;8.670;2022-12-18T00:31:40;-3270.60;89.40
46816;DHT22;32787;53.316;8.670;2022-12-18T00:34:06;-3270.80;89.40
46816;DHT22;32787;53.316;8.670;2022-12-18T00:36:34;-3270.70;89.30
46816;DHT22;32787;53.316;8.670;2022-12-18T00:39:02;-3270.60;89.30
46816;DHT22;32787;53.316;8.670;2022-12-18T00:41:28;-3270.60;89.20
46816;DHT22;32787;53.316;8.670;2022-12-18T00:44:15;-3270.60;89.20
46816;DHT22;32787;53.316;8.670;2022-12-18T00:46:41;-3270.40;89.10
46816;DHT22;32787;53.316;8.670;2022-12-18T00:49:08;-3270.40;89.30
46816;DHT22;32787;53.316;8.670;2022-12-18T00:51:33;-3270.40;89.50
46816;DHT22;32787;53.316;8.670;2022-12-18T00:53:59;-3270.50;89.60
46816;DHT22;32787;53.316;8.670;2022-12-18T00:56:25;-3270.60;89.70
46816;DHT22;32787;53.316;8.670;2022-12-18T00:58:50;-3270.70;89.60
46816;DHT22;32787;53.316;8.670;2022-12-18T01:01:17;-3270.70;89.50
46816;DHT22;32787;53.316;8.670;2022-12-18T01:03:43;-3270.60;89.40
46816;DHT22;32787;53.316;8.670;2022-12-18T01:06:12;-3270.60;89.30
46816;DHT22;32787;53.316;8.670;2022-12-18T01:08:38;-3270.50;89.20
46816;DHT22;32787;53.316;8.670;2022-12-18T01:11:12;-3270.40;89.20
46816;DHT22;32787;53.316;8.670;2022-12-18T01:13:39;-3270.40;89.40
46816;DHT22;32787;53.316;8.670;2022-12-18T01:16:05;-3270.30;89.40
46816;DHT22;32787;53.316;8.670;2022-12-18T01:18:31;-3270.40;89.70
46816;DHT22;32787;53.316;8.670;2022-12-18T01:20:57;-3270.50;89.70
46816;DHT22;32787;53.316;8.670;2022-12-18T01:23:23;-3270.60;89.70
46816;DHT22;32787;53.316;8.670;2022-12-18T01:25:48;-3270.60;89.80
46816;DHT22;32787;53.316;8.670;2022-12-18T01:28:14;-3270.50;89.60
46816;DHT22;32787;53.316;8.670;2022-12-18T01:30:40;-3270.60;89.70
46816;DHT22;32787;53.316;8.670;2022-12-18T01:33:05;-3270.60;89.70
46816;DHT22;32787;53.316;8.670;2022-12-18T01:35:31;-3270.60;89.50
46816;DHT22;32787;53.316;8.670;2022-12-18T01:37:57;-3270.40;89.60
46816;DHT22;32787;53.316;8.670;2022-12-18T01:40:22;-3270.50;89.80
46816;DHT22;32787;53.316;8.670;2022-12-18T01:42:52;-3270.70;89.70
46816;DHT22;32787;53.316;8.670;2022-12-18T01:47:57;-3270.50;89.50
46816;DHT22;32787;53.316;8.670;2022-12-18T01:50:36;-3270.40;89.50
46816;DHT22;32787;53.316;8.670;2022-12-18T01:53:14;-3270.40;89.50
46816;DHT22;32787;53.316;8.670;2022-12-18T01:55:53;-3270.30;89.50
46816;DHT22;32787;53.316;8.670;2022-12-18T01:58:30;-3270.30;89.80
46816;DHT22;32787;53.316;8.670;2022-12-18T02:00:58;-3270.50;89.80
46816;DHT22;32787;53.316;8.670;2022-12-18T02:03:23;-3270.50;89.50
46816;DHT22;32787;53.316;8.670;2022-12-18T02:11:27;-3270.20;89.40
46816;DHT22;32787;53.316;8.670;2022-12-18T02:14:18;-3270.10;89.30
46816;DHT22;32787;53.316;8.670;2022-12-18T02:17:22;-3270.10;89.30
46816;DHT22;32787;53.316;8.670;2022-12-18T02:22:53;-3269.90;89.40
46816;DHT22;32787;53.316;8.670;2022-12-18T02:28:31;-3270.00;89.90
46816;DHT22;32787;53.316;8.670;2022-12-18T02:31:00;-3270.10;89.80
46816;DHT22;32787;53.316;8.670;2022-12-18T02:33:27;-3270.10;89.80
46816;DHT22;32787;53.316;8.670;2022-12-18T02:35:56;-3270.00;89.60
46816;DHT22;32787;53.316;8.670;2022-12-18T02:38:23;-3270.00;89.50
46816;DHT22;32787;53.316;8.670;2022-12-18T02:40:51;-3269.90;89.50
46816;DHT22;32787;53.316;8.670;2022-12-18T02:43:19;-3269.80;89.50
46816;DHT22;32787;53.316;8.670;2022-12-18T02:45:53;-3270.00;89.70
46816;DHT22;32787;53.316;8.670;2022-12-18T02:48:28;-3270.10;89.60
46816;DHT22;32787;53.316;8.670;2022-12-18T02:53:52;-3269.90;89.30
46816;DHT22;32787;53.316;8.670;2022-12-18T02:56:23;-3269.80;89.30
46816;DHT22;32787;53.316;8.670;2022-12-18T02:59:14;-3269.60;89.40
46816;DHT22;32787;53.316;8.670;2022-12-18T03:04:24;-3269.40;89.70
46816;DHT22;32787;53.316;8.670;2022-12-18T03:06:55;-3269.40;89.90
46816;DHT22;32787;53.316;8.670;2022-12-18T03:09:36;-3269.40;89.80
46816;DHT22;32787;53.316;8.670;2022-12-18T03:17:25;-3269.50;89.80
46816;DHT22;32787;53.316;8.670;2022-12-18T03:19:52;-3269.40;89.80
46816;DHT22;32787;53.316;8.670;2022-12-18T03:22:19;-3269.40;89.80
46816;DHT22;32787;53.316;8.670;2022-12-18T03:24:46;-3269.40;89.90
46816;DHT22;32787;53.316;8.670;2022-12-18T03:27:15;-3269.50;89.70
46816;DHT22;32787;53.316;8.670;2022-12-18T03:29:46;-3269.40;89.60
46816;DHT22;32787;53.316;8.670;2022-12-18T03:32:30;-3269.30;89.70
46816;DHT22;32787;53.316;8.670;2022-12-18T03:35:00;-3269.30;89.70
46816;DHT22;32787;53.316;8.670;2022-12-18T03:37:31;-3269.30;89.50
46816;DHT22;32787;53.316;8.670;2022-12-18T03:39:57;-3269.30;89.60
46816;DHT22;32787;53.316;8.670;2022-12-18T03:42:51;-3269.20;89.60
46816;DHT22;32787;53.316;8.670;2022-12-18T03:45:21;-3269.20;89.60
46816;DHT22;32787;53.316;8.670;2022-12-18T03:56:15;-3268.90;89.80
46816;DHT22;32787;53.316;8.670;2022-12-18T03:58:42;-3269.10;90.10
46816;DHT22;32787;53.316;8.670;2022-12-18T04:01:10;-3269.30;90.20
46816;DHT22;32787;53.316;8.670;2022-12-18T04:03:38;-3269.30;90.00
46816;DHT22;32787;53.316;8.670;2022-12-18T04:06:05;-3269.30;89.90
46816;DHT22;32787;53.316;8.670;2022-12-18T04:08:31;-3269.30;89.70
46816;DHT22;32787;53.316;8.670;2022-12-18T04:11:00;-3269.10;89.40
46816;DHT22;32787;53.316;8.670;2022-12-18T04:13:32;-3269.10;89.50
46816;DHT22;32787;53.316;8.670;2022-12-18T04:15:59;-3269.20;89.70
46816;DHT22;32787;53.316;8.670;2022-12-18T04:18:25;-3269.10;89.50
46816;DHT22;32787;53.316;8.670;2022-12-18T04:20:51;-3268.90;89.40
46816;DHT22;32787;53.316;8.670;2022-12-18T04:23:16;-3268.80;89.30
46816;DHT22;32787;53.316;8.670;2022-12-18T04:25:42;-3268.80;89.50
46816;DHT22;32787;53.316;8.670;2022-12-18T04:28:08;-3268.60;89.50
46816;DHT22;32787;53.316;8.670;2022-12-18T04:30:33;-3268.70;89.60
46816;DHT22;32787;53.316;8.670;2022-12-18T04:32:59;-3268.60;89.60
46816;DHT22;32787;53.316;8.670;2022-12-18T04:35:24;-3268.70;89.70
46816;DHT22;32787;53.316;8.670;2022-12-18T04:37:50;-3268.90;89.90
46816;DHT22;32787;53.316;8.670;2022-12-18T04:40:16;-3268.90;89.80
46816;DHT22;32787;53.316;8.670;2022-12-18T04:42:41;-3269.10;89.60
46816;DHT22;32787;53.316;8.670;2022-12-18T04:45:08;-3268.90;89.20
46816;DHT22;32787;53.316;8.670;2022-12-18T04:47:33;-3269.00;89.10
46816;DHT22;32787;53.316;8.670;2022-12-18T04:49:59;-3268.90;89.10
46816;DHT22;32787;53.316;8.670;2022-12-18T04:52:25;-3268.90;89.20
46816;DHT22;32787;53.316;8.670;2022-12-18T04:54:50;-3269.00;89.20
46816;DHT22;32787;53.316;8.670;2022-12-18T04:57:16;-3269.10;89.30
46816;DHT22;32787;53.316;8.670;2022-12-18T04:59:43;-3269.00;89.20
46816;DHT22;32787;53.316;8.670;2022-12-18T05:02:09;-3268.90;89.20
46816;DHT22;32787;53.316;8.670;2022-12-18T05:04:35;-3269.00;89.40
46816;DHT22;32787;53.316;8.670;2022-12-18T05:07:00;-3268.90;89.50
46816;DHT22;32787;53.316;8.670;2022-12-18T05:09:26;-3268.90;89.40
46816;DHT22;32787;53.316;8.670;2022-12-18T05:11:52;-3268.90;89.60
46816;DHT22;32787;53.316;8.670;2022-12-18T05:14:17;-3268.90;89.70
46816;DHT22;32787;53.316;8.670;2022-12-18T05:16:43;-3268.80;89.70
46816;DHT22;32787;53.316;8.670;2022-12-18T05:19:08;-3268.90;89.80
46816;DHT22;32787;53.316;8.670;2022-12-18T05:21:34;-3268.90;89.70
46816;DHT22;32787;53.316;8.670;2022-12-18T05:24:00;-3268.80;89.80
46816;DHT22;32787;53.316;8.670;2022-12-18T05:26:25;-3268.70;89.70
46816;DHT22;32787;53.316;8.670;2022-12-18T05:28:51;-3268.70;89.80
46816;DHT22;32787;53.316;8.670;2022-12-18T05:31:16;-3268.80;89.80
46816;DHT22;32787;53.316;8.670;2022-12-18T05:33:43;-3268.70;89.70
46816;DHT22;32787;53.316;8.670;2022-12-18T05:36:09;-3268.80;89.70
46816;DHT22;32787;53.316;8.670;2022-12-18T05:38:38;-3268.70;89.60
46816;DHT22;32787;53.316;8.670;2022-12-18T05:41:05;-3268.70;89.70
46816;DHT22;32787;53.316;8.670;2022-12-18T05:43:31;-3268.80;89.70
46816;DHT22;32787;53.316;8.670;2022-12-18T05:45:56;-3268.70;89.60
46816;DHT22;32787;53.316;8.670;2022-12-18T05:48:23;-3268.60;89.50
46816;DHT22;32787;53.316;8.670;2022-12-18T05:50:50;-3268.50;89.40
46816;DHT22;32787;53.316;8.670;2022-12-18T05:53:18;-3268.40;89.50
46816;DHT22;32787;53.316;8.670;2022-12-18T05:55:45;-3268.30;89.60
46816;DHT22;32787;53.316;8.670;2022-12-18T05:58:12;-3268.20;89.60
46816;DHT22;32787;53.316;8.670;2022-12-18T06:00:39;-3268.30;89.70
46816;DHT22;32787;53.316;8.670;2022-12-18T06:03:09;-3268.40;89.90
46816;DHT22;32787;53.316;8.670;2022-12-18T06:05:37;-3268.50;89.80
46816;DHT22;32787;53.316;8.670;2022-12-18T06:08:03;-3268.70;89.60
46816;DHT22;32787;53.316;8.670;2022-12-18T06:10:29;-3268.70;89.40
46816;DHT22;32787;53.316;8.670;2022-12-18T06:12:54;-3268.60;89.30
46816;DHT22;32787;53.316;8.670;2022-12-18T06:15:20;-3268.60;89.30
46816;DHT22;32787;53.316;8.670;2022-12-18T06:17:46;-3268.60;89.40
46816;DHT22;32787;53.316;8.670;2022-12-18T06:20:11;-3268.60;89.50
46816;DHT22;32787;53.316;8.670;2022-12-18T06:22:37;-3268.70;89.50
46816;DHT22;32787;53.316;8.670;2022-12-18T06:25:03;-3268.80;89.40
46816;DHT22;32787;53.316;8.670;2022-12-18T06:27:28;-3268.80;89.30
46816;DHT22;32787;53.316;8.670;2022-12-18T06:29:54;-3269.00;89.30
46816;DHT22;32787;53.316;8.670;2022-12-18T06:32:20;-3269.10;89.00
46816;DHT22;32787;53.316;8.670;2022-12-18T06:34:45;-3269.00;89.00
46816;DHT22;32787;53.316;8.670;2022-12-18T06:37:11;-3269.20;89.20
46816;DHT22;32787;53.316;8.670;2022-12-18T06:39:36;-3269.50;89.00
46816;DHT22;32787;53.316;8.670;2022-12-18T06:42:03;-3269.50;89.20
46816;DHT22;32787;53.316;8.670;2022-12-18T06:44:28;-3269.80;89.50
46816;DHT22;32787;53.316;8.670;2022-12-18T06:46:55;-3269.70;89.50
46816;DHT22;32787;53.316;8.670;2022-12-18T06:49:20;-3269.70;89.40
46816;DHT22;32787;53.316;8.670;2022-12-18T06:51:46;-3269.70;89.40
46816;DHT22;32787;53.316;8.670;2022-12-18T06:54:12;-3269.80;89.20
46816;DHT22;32787;53.316;8.670;2022-12-18T06:56:38;-3269.60;89.00
46816;DHT22;32787;53.316;8.670;2022-12-18T06:59:03;-3269.50;89.10
46816;DHT22;32787;53.316;8.670;2022-12-18T07:01:29;-3269.70;89.50
46816;DHT22;32787;53.316;8.670;2022-12-18T07:03:56;-3269.70;89.20
46816;DHT22;32787;53.316;8.670;2022-12-18T07:06:24;-3269.80;89.50
46816;DHT22;32787;53.316;8.670;2022-12-18T07:08:51;-3269.80;89.20
46816;DHT22;32787;53.316;8.670;2022-12-18T07:11:17;-3269.50;88.90
46816;DHT22;32787;53.316;8.670;2022-12-18T07:13:43;-3269.30;88.80
46816;DHT22;32787;53.316;8.670;2022-12-18T07:16:15;-3269.20;88.90
46816;DHT22;32787;53.316;8.670;2022-12-18T07:18:41;-3269.20;89.00
46816;DHT22;32787;53.316;8.670;2022-12-18T07:21:15;-3269.20;89.00
46816;DHT22;32787;53.316;8.670;2022-12-18T07:23:41;-3269.20;89.10
46816;DHT22;32787;53.316;8.670;2022-12-18T07:26:12;-3269.20;89.20
46816;DHT22;32787;53.316;8.670;2022-12-18T07:28:39;-3269.10;89.10
46816;DHT22;32787;53.316;8.670;2022-12-18T07:31:07;-3269.00;89.00
46816;DHT22;32787;53.316;8.670;2022-12-18T07:33:34;-3269.20;89.10
46816;DHT22;32787;53.316;8.670;2022-12-18T07:36:01;-3269.30;89.00
46816;DHT22;32787;53.316;8.670;2022-12-18T07:38:26;-3269.30;89.00
46816;DHT22;32787;53.316;8.670;2022-12-18T07:40:52;-3269.10;88.80
46816;DHT22;32787;53.316;8.670;2022-12-18T07:43:18;-3269.10;88.80
46816;DHT22;32787;53.316;8.670;2022-12-18T07:45:43;-3269.20;88.90
46816;DHT22;32787;53.316;8.670;2022-12-18T07:48:09;-3269.10;88.90
46816;DHT22;32787;53.316;8.670;2022-12-18T07:50:36;-3269.10;88.90
46816;DHT22;32787;53.316;8.670;2022-12-18T07:53:02;-3269.10;89.00
46816;DHT22;32787;53.316;8.670;2022-12-18T07:55:31;-3269.10;89.10
46816;DHT22;32787;53.316;8.670;2022-12-18T07:57:56;-3269.00;89.20
46816;DHT22;32787;53.316;8.670;2022-12-18T08:00:22;-3269.00;89.30
46816;DHT22;32787;53.316;8.670;2022-12-18T08:02:47;-3269.10;89.30
46816;DHT22;32787;53.316;8.670;2022-12-18T08:05:13;-3269.10;89.50
46816;DHT22;32787;53.316;8.670;2022-12-18T08:07:39;-3269.10;89.60
46816;DHT22;32787;53.316;8.670;2022-12-18T08:10:05;-3269.10;89.70
46816;DHT22;32787;53.316;8.670;2022-12-18T08:12:31;-3269.20;89.80
46816;DHT22;32787;53.316;8.670;2022-12-18T08:14:57;-3269.30;89.80
46816;DHT22;32787;53.316;8.670;2022-12-18T08:17:22;-3269.20;89.70
46816;DHT22;32787;53.316;8.670;2022-12-18T08:19:48;-3269.30;89.80
46816;DHT22;32787;53.316;8.670;2022-12-18T08:22:14;-3269.30;89.80
46816;DHT22;32787;53.316;8.670;2022-12-18T08:24:39;-3269.40;89.90
46816;DHT22;32787;53.316;8.670;2022-12-18T08:27:05;-3269.40;89.80
46816;DHT22;32787;53.316;8.670;2022-12-18T08:29:30;-3269.50;89.80
46816;DHT22;32787;53.316;8.670;2022-12-18T08:31:57;-3269.50;89.80
46816;DHT22;32787;53.316;8.670;2022-12-18T08:34:23;-3269.60;89.90
46816;DHT22;32787;53.316;8.670;2022-12-18T08:36:48;-3269.80;89.90
46816;DHT22;32787;53.316;8.670;2022-12-18T08:39:14;-3269.90;89.90
46816;DHT22;32787;53.316;8.670;2022-12-18T08:41:39;-3270.00;89.80
46816;DHT22;32787;53.316;8.670;2022-12-18T08:44:07;-3270.10;89.70
46816;DHT22;32787;53.316;8.670;2022-12-18T08:46:52;-3270.20;89.80
46816;DHT22;32787;53.316;8.670;2022-12-18T08:49:17;-3270.40;89.70
46816;DHT22;32787;53.316;8.670;2022-12-18T08:51:43;-3270.40;89.60
46816;DHT22;32787;53.316;8.670;2022-12-18T08:54:11;-3270.60;89.70
46816;DHT22;32787;53.316;8.670;2022-12-18T08:56:38;-3270.80;89.90
46816;DHT22;32787;53.316;8.670;2022-12-18T08:59:04;-3271.10;89.80
46816;DHT22;32787;53.316;8.670;2022-12-18T09:01:30;-3271.20;89.50
46816;DHT22;32787;53.316;8.670;2022-12-18T09:03:55;-3271.20;89.30
46816;DHT22;32787;53.316;8.670;2022-12-18T09:06:22;-3271.30;89.30
46816;DHT22;32787;53.316;8.670;2022-12-18T09:08:48;-3271.50;89.20
46816;DHT22;32787;53.316;8.670;2022-12-18T09:11:23;-3271.60;89.20
46816;DHT22;32787;53.316;8.670;2022-12-18T09:13:49;-3271.60;88.80
46816;DHT22;32787;53.316;8.670;2022-12-18T09:16:16;-3271.70;88.80
46816;DHT22;32787;53.316;8.670;2022-12-18T09:18:41;-3271.70;88.70
46816;DHT22;32787;53.316;8.670;2022-12-18T09:21:18;-3271.80;88.80
46816;DHT22;32787;53.316;8.670;2022-12-18T09:23:48;-3271.80;88.60
46816;DHT22;32787;53.316;8.670;2022-12-18T09:26:14;-3271.90;88.50
46816;DHT22;32787;53.316;8.670;2022-12-18T09:28:39;-3271.90;88.40
46816;DHT22;32787;53.316;8.670;2022-12-18T09:31:07;-3271.90;88.20
46816;DHT22;32787;53.316;8.670;2022-12-18T09:33:34;-3271.90;88.20
46816;DHT22;32787;53.316;8.670;2022-12-18T09:36:02;-3272.00;88.20
46816;DHT22;32787;53.316;8.670;2022-12-18T09:38:27;-3272.00;88.10
46816;DHT22;32787;53.316;8.670;2022-12-18T09:43:51;-3272.10;88.20
46816;DHT22;32787;53.316;8.670;2022-12-18T09:46:26;-3272.20;88.20
46816;DHT22;32787;53.316;8.670;2022-12-18T09:48:54;-3272.30;88.10
46816;DHT22;32787;53.316;8.670;2022-12-18T09:51:35;-3272.40;87.90
46816;DHT22;32787;53.316;8.670;2022-12-18T09:54:03;-3272.50;87.70
46816;DHT22;32787;53.316;8.670;2022-12-18T09:56:35;-3272.60;87.50
46816;DHT22;32787;53.316;8.670;2022-12-18T09:59:03;-3272.50;87.40
46816;DHT22;32787;53.316;8.670;2022-12-18T10:01:31;-3272.60;87.60
46816;DHT22;32787;53.316;8.670;2022-12-18T10:03:57;-3272.60;87.40
46816;DHT22;32787;53.316;8.670;2022-12-18T10:06:29;-3272.60;87.40
46816;DHT22;32787;53.316;8.670;2022-12-18T10:12:02;-3272.70;87.20
46816;DHT22;32787;53.316;8.670;2022-12-18T10:20:21;-3272.80;87.30
46816;DHT22;32787;53.316;8.670;2022-12-18T10:28:07;-3272.80;87.40
46816;DHT22;32787;53.316;8.670;2022-12-18T10:30:35;-3272.70;87.10
46816;DHT22;32787;53.316;8.670;2022-12-18T10:33:04;-3272.80;87.40
46816;DHT22;32787;53.316;8.670;2022-12-18T10:35:29;-3272.80;87.60
46816;DHT22;32787;53.316;8.670;2022-12-18T10:38:21;-3272.80;87.60
46816;DHT22;32787;53.316;8.670;2022-12-18T10:40:59;-3272.90;87.20
46816;DHT22;32787;53.316;8.670;2022-12-18T10:48:25;-3273.00;87.30
46816;DHT22;32787;53.316;8.670;2022-12-18T10:50:52;-3273.10;87.10
46816;DHT22;32787;53.316;8.670;2022-12-18T10:53:26;-3273.10;87.00
46816;DHT22;32787;53.316;8.670;2022-12-18T10:55:54;-3273.20;86.80
46816;DHT22;32787;53.316;8.670;2022-12-18T11:03:37;-3273.30;86.50
46816;DHT22;32787;53.316;8.670;2022-12-18T11:06:09;-3273.40;86.30
46816;DHT22;32787;53.316;8.670;2022-12-18T11:08:36;-3273.40;86.60
46816;DHT22;32787;53.316;8.670;2022-12-18T11:11:02;-3273.30;86.30
46816;DHT22;32787;53.316;8.670;2022-12-18T11:13:29;-3273.40;86.50
46816;DHT22;32787;53.316;8.670;2022-12-18T11:15:55;-3273.40;86.50
46816;DHT22;32787;53.316;8.670;2022-12-18T11:18:30;-3273.50;86.40
46816;DHT22;32787;53.316;8.670;2022-12-18T11:21:06;-3273.50;86.40
46816;DHT22;32787;53.316;8.670;2022-12-18T11:23:33;-3273.60;86.40
46816;DHT22;32787;53.316;8.670;2022-12-18T11:26:01;-3273.60;86.40
46816;DHT22;32787;53.316;8.670;2022-12-18T11:28:46;-3273.60;86.00
46816;DHT22;32787;53.316;8.670;2022-12-18T11:34:04;-3273.70;86.20
46816;DHT22;32787;53.316;8.670;2022-12-18T11:36:41;-3273.80;85.90
46816;DHT22;32787;53.316;8.670;2022-12-18T11:41:55;-3274.00;85.50
46816;DHT22;32787;53.316;8.670;2022-12-18T11:44:57;-3274.10;85.60
46816;DHT22;32787;53.316;8.670;2022-12-18T11:49:51;-3274.30;85.40
46816;DHT22;32787;53.316;8.670;2022-12-18T11:52:23;-3274.30;85.20
46816;DHT22;32787;53.316;8.670;2022-12-18T11:54:56;-3274.40;85.20
46816;DHT22;32787;53.316;8.670;2022-12-18T11:57:45;-3274.40;84.60
46816;DHT22;32787;53.316;8.670;2022-12-18T12:00:20;-3274.50;84.50
46816;DHT22;32787;53.316;8.670;2022-12-18T12:10:59;-3274.70;84.30
46816;DHT22;32787;53.316;8.670;2022-12-18T12:16:41;-3274.80;83.90
46816;DHT22;32787;53.316;8.670;2022-12-18T12:25:28;-3274.80;84.40
46816;DHT22;32787;53.316;8.670;2022-12-18T12:33:36;-3274.90;84.10
46816;DHT22;32787;53.316;8.670;2022-12-18T12:36:32;-3274.90;84.30
46816;DHT22;32787;53.316;8.670;2022-12-18T12:39:05;-3274.90;84.30
46816;DHT22;32787;53.316;8.670;2022-12-18T12:41:32;-3274.80;84.10
46816;DHT22;32787;53.316;8.670;2022-12-18T12:44:47;-3274.80;84.40
46816;DHT22;32787;53.316;8.670;2022-12-18T12:47:41;-3274.80;84.60
46816;DHT22;32787;53.316;8.670;2022-12-18T12:50:18;-3274.80;84.50
46816;DHT22;32787;53.316;8.670;2022-12-18T12:52:47;-3274.80;84.90
46816;DHT22;32787;53.316;8.670;2022-12-18T12:55:19;-3274.80;84.60
46816;DHT22;32787;53.316;8.670;2022-12-18T13:03:45;-3275.00;84.70
46816;DHT22;32787;53.316;8.670;2022-12-18T13:06:29;-3274.90;84.50
46816;DHT22;32787;53.316;8.670;2022-12-18T13:08:58;-3275.00;84.60
46816;DHT22;32787;53.316;8.670;2022-12-18T13:11:42;-3275.00;84.60
46816;DHT22;32787;53.316;8.670;2022-12-18T13:14:38;-3274.90;84.80
46816;DHT22;32787;53.316;8.670;2022-12-18T13:19:52;-3275.00;84.70
46816;DHT22;32787;53.316;8.670;2022-12-18T13:22:37;-3275.00;84.50
46816;DHT22;32787;53.316;8.670;2022-12-18T13:25:26;-3274.90;84.70
46816;DHT22;32787;53.316;8.670;2022-12-18T13:38:45;-3275.10;84.00
46816;DHT22;32787;53.316;8.670;2022-12-18T13:41:27;-3275.00;84.20
46816;DHT22;32787;53.316;8.670;2022-12-18T13:44:32;-3275.00;83.90
46816;DHT22;32787;53.316;8.670;2022-12-18T13:46:56;-3275.10;83.70
46816;DHT22;32787;53.316;8.670;2022-12-18T13:49:42;-3275.00;83.90
46816;DHT22;32787;53.316;8.670;2022-12-18T13:52:26;-3275.00;83.80
46816;DHT22;32787;53.316;8.670;2022-12-18T13:54:56;-3275.00;84.00
46816;DHT22;32787;53.316;8.670;2022-12-18T13:57:36;-3275.10;83.70
46816;DHT22;32787;53.316;8.670;2022-12-18T14:00:26;-3274.90;84.10
46816;DHT22;32787;53.316;8.670;2022-12-18T14:02:53;-3275.00;84.20
46816;DHT22;32787;53.316;8.670;2022-12-18T14:05:29;-3274.90;84.40
46816;DHT22;32787;53.316;8.670;2022-12-18T14:08:01;-3274.90;84.30
46816;DHT22;32787;53.316;8.670;2022-12-18T14:10:28;-3274.90;84.30
46816;DHT22;32787;53.316;8.670;2022-12-18T14:12:54;-3274.90;84.40
46816;DHT22;32787;53.316;8.670;2022-12-18T14:20:59;-3274.90;84.30
46816;DHT22;32787;53.316;8.670;2022-12-18T14:23:34;-3274.90;84.00
46816;DHT22;32787;53.316;8.670;2022-12-18T14:26:02;-3274.80;83.90
46816;DHT22;32787;53.316;8.670;2022-12-18T14:28:29;-3274.80;84.00
46816;DHT22;32787;53.316;8.670;2022-12-18T14:30:55;-3274.80;83.90
46816;DHT22;32787;53.316;8.670;2022-12-18T14:33:24;-3274.90;83.70
46816;DHT22;32787;53.316;8.670;2022-12-18T14:41:11;-3274.80;84.00
46816;DHT22;32787;53.316;8.670;2022-12-18T14:43:40;-3274.70;83.90
46816;DHT22;32787;53.316;8.670;2022-12-18T14:48:58;-3274.80;83.60
46816;DHT22;32787;53.316;8.670;2022-12-18T14:51:27;-3274.80;83.40
46816;DHT22;32787;53.316;8.670;2022-12-18T14:53:58;-3274.80;83.60
46816;DHT22;32787;53.316;8.670;2022-12-18T14:56:42;-3274.80;83.40
46816;DHT22;32787;53.316;8.670;2022-12-18T14:59:17;-3274.80;83.30
46816;DHT22;32787;53.316;8.670;2022-12-18T15:04:28;-3274.80;83.10
46816;DHT22;32787;53.316;8.670;2022-12-18T15:09:37;-3274.80;83.10
46816;DHT22;32787;53.316;8.670;2022-12-18T15:12:04;-3274.80;82.80
46816;DHT22;32787;53.316;8.670;2022-12-18T15:16:56;-3274.80;82.70
46816;DHT22;32787;53.316;8.670;2022-12-18T15:19:39;-3274.90;82.40
46816;DHT22;32787;53.316;8.670;2022-12-18T15:22:27;-3274.90;82.30
46816;DHT22;32787;53.316;8.670;2022-12-18T15:24:54;-3274.90;82.10
46816;DHT22;32787;53.316;8.670;2022-12-18T15:27:36;-3275.00;82.10
46816;DHT22;32787;53.316;8.670;2022-12-18T15:32:39;-3275.10;81.40
46816;DHT22;32787;53.316;8.670;2022-12-18T15:37:37;-3275.10;81.30
46816;DHT22;32787;53.316;8.670;2022-12-18T15:40:04;-3275.00;81.40
46816;DHT22;32787;53.316;8.670;2022-12-18T15:42:29;-3275.10;81.20
46816;DHT22;32787;53.316;8.670;2022-12-18T15:45:14;-3275.10;81.00
46816;DHT22;32787;53.316;8.670;2022-12-18T15:47:40;-3275.10;80.90
46816;DHT22;32787;53.316;8.670;2022-12-18T15:50:09;-3275.20;80.40
46816;DHT22;32787;53.316;8.670;2022-12-18T15:52:44;-3275.30;79.90
46816;DHT22;32787;53.316;8.670;2022-12-18T15:55:19;-3275.30;79.90
46816;DHT22;32787;53.316;8.670;2022-12-18T15:58:04;-3275.30;79.40
46816;DHT22;32787;53.316;8.670;2022-12-18T16:00:31;-3275.30;79.80
46816;DHT22;32787;53.316;8.670;2022-12-18T16:02:58;-3275.30;79.50
46816;DHT22;32787;53.316;8.670;2022-12-18T16:05:24;-3275.30;79.20
46816;DHT22;32787;53.316;8.670;2022-12-18T16:07:49;-3275.30;79.30
46816;DHT22;32787;53.316;8.670;2022-12-18T16:10:15;-3275.40;78.90
46816;DHT22;32787;53.316;8.670;2022-12-18T16:12:41;-3275.40;78.40
46816;DHT22;32787;53.316;8.670;2022-12-18T16:15:07;-3275.40;78.30
46816;DHT22;32787;53.316;8.670;2022-12-18T16:17:33;-3275.40;78.00
46816;DHT22;32787;53.316;8.670;2022-12-18T16:19:59;-3275.50;77.50
46816;DHT22;32787;53.316;8.670;2022-12-18T16:22:26;-3275.40;78.00
46816;DHT22;32787;53.316;8.670;2022-12-18T16:24:53;-3275.40;77.90
46816;DHT22;32787;53.316;8.670;2022-12-18T16:27:19;-3275.50;77.40
46816;DHT22;32787;53.316;8.670;2022-12-18T16:29:45;-3275.50;77.60
46816;DHT22;32787;53.316;8.670;2022-12-18T16:32:15;-3275.50;77.20
46816;DHT22;32787;53.316;8.670;2022-12-18T16:34:41;-3275.40;77.60
46816;DHT22;32787;53.316;8.670;2022-12-18T16:37:08;-3275.50;77.20
46816;DHT22;32787;53.316;8.670;2022-12-18T16:39:34;-3275.50;76.70
46816;DHT22;32787;53.316;8.670;2022-12-18T16:42:13;-3275.50;77.20
46816;DHT22;32787;53.316;8.670;2022-12-18T16:44:41;-3275.60;76.70
46816;DHT22;32787;53.316;8.670;2022-12-18T16:47:08;-3275.60;76.40
46816;DHT22;32787;53.316;8.670;2022-12-18T16:49:33;-3275.70;75.90
46816;DHT22;32787;53.316;8.670;2022-12-18T16:51:59;-3275.80;75.50
46816;DHT22;32787;53.316;8.670;2022-12-18T16:54:25;-3275.80;74.80
46816;DHT22;32787;53.316;8.670;2022-12-18T16:56:50;-3275.90;74.60
46816;DHT22;32787;53.316;8.670;2022-12-18T16:59:16;-3275.90;74.60
46816;DHT22;32787;53.316;8.670;2022-12-18T17:01:42;-3275.80;74.60
46816;DHT22;32787;53.316;8.670;2022-12-18T17:04:08;-3275.80;74.80
46816;DHT22;32787;53.316;8.670;2022-12-18T17:06:38;-3275.90;74.40
46816;DHT22;32787;53.316;8.670;2022-12-18T17:09:05;-3275.90;74.20
46816;DHT22;32787;53.316;8.670;2022-12-18T17:11:32;-3275.90;74.00
46816;DHT22;32787;53.316;8.670;2022-12-18T17:13:58;-3275.90;74.00
46816;DHT22;32787;53.316;8.670;2022-12-18T17:16:25;-3275.90;73.80
46816;DHT22;32787;53.316;8.670;2022-12-18T17:18:54;-3275.90;73.50
46816;DHT22;32787;53.316;8.670;2022-12-18T17:21:20;-3276.10;73.20